sensor_id;sensor_type;location;lat;lon;timestamp;temperature;humidity
15274;DHT22;7738;49.532;11.156;2022-12-26T00:01:58;6.40;99.90
15274;DHT22;7738;49.532;11.156;2022-12-26T00:04:30;6.40;99.90
15274;DHT22;7738;49.532;11.156;2022-12-26T00:07:19;6.30;99.90
15274;DHT22;7738;49.532;11.156;2022-12-26T00:09:49;6.50;99.90
15274;DHT22;7738;49.532;11.156;2022-12-26T00:12:19;6.40;99.90
15274;DHT22;7738;49.532;11.156;2022-12-26T00:14:50;6.40;99.90
15274;DHT22;7738;49.532;11.156;2022-12-26T00:17:22;6.50;99.90
15274;DHT22;7738;49.532;11.156;2022-12-26T00:19:52;6.40;99.90
15274;DHT22;7738;49.532;11.156;2022-12-26T00:22:22;6.40;99.90
15274;DHT22;7738;49.532;11.156;2022-12-26T00:24:52;6.40;99.90
15274;DHT22;7738;49.532;11.156;2022-12-26T00:27:22;6.40;99.90
15274;DHT22;7738;49.532;11.156;2022-12-26T00:29:52;6.40;99.90
15274;DHT22;7738;49.532;11.156;2022-12-26T00:32:25;6.40;99.90
15274;DHT22;7738;49.532;11.156;2022-12-26T00:34:55;6.40;99.90
15274;DHT22;7738;49.532;11.156;2022-12-26T00:37:25;6.40;99.90
15274;DHT22;7738;49.532;11.156;2022-12-26T00:39:55;6.40;99.90
15274;DHT22;7738;49.532;11.156;2022-12-26T00:42:25;6.40;99.90
15274;DHT22;7738;49.532;11.156;2022-12-26T00:44:55;6.50;99.90
15274;DHT22;7738;49.532;11.156;2022-12-26T00:47:27;6.50;99.90
15274;DHT22;7738;49.532;11.156;2022-12-26T00:49:57;6.60;99.90
15274;DHT22;7738;49.532;11.156;2022-12-26T00:52:41;6.60;99.90
15274;DHT22;7738;49.532;11.156;2022-12-26T00:55:11;6.60;99.90
15274;DHT22;7738;49.532;11.156;2022-12-26T00:57:41;6.50;99.90
15274;DHT22;7738;49.532;11.156;2022-12-26T01:00:13;6.60;99.90
15274;DHT22;7738;49.532;11.156;2022-12-26T01:02:45;6.70;99.90
15274;DHT22;7738;49.532;11.156;2022-12-26T01:05:16;6.60;99.90
15274;DHT22;7738;49.532;11.156;2022-12-26T01:07:46;7.80;99.90
15274;DHT22;7738;49.532;11.156;2022-12-26T01:10:37;6.70;99.90
15274;DHT22;7738;49.532;11.156;2022-12-26T01:13:08;6.70;99.90
15274;DHT22;7738;49.532;11.156;2022-12-26T01:15:38;6.60;99.90
15274;DHT22;7738;49.532;11.156;2022-12-26T01:18:11;6.70;99.90
15274;DHT22;7738;49.532;11.156;2022-12-26T01:20:41;6.60;99.90
15274;DHT22;7738;49.532;11.156;2022-12-26T01:23:11;6.70;99.90
15274;DHT22;7738;49.532;11.156;2022-12-26T01:25:41;6.70;99.90
15274;DHT22;7738;49.532;11.156;2022-12-26T01:28:31;6.70;99.90
15274;DHT22;7738;49.532;11.156;2022-12-26T01:31:01;6.70;99.90
15274;DHT22;7738;49.532;11.156;2022-12-26T01:33:34;6.70;99.90
15274;DHT22;7738;49.532;11.156;2022-12-26T01:36:05;6.70;99.90
15274;DHT22;7738;49.532;11.156;2022-12-26T01:38:35;6.70;99.90
15274;DHT22;7738;49.532;11.156;2022-12-26T01:41:05;6.70;99.90
15274;DHT22;7738;49.532;11.156;2022-12-26T01:44:02;6.60;99.90
15274;DHT22;7738;49.532;11.156;2022-12-26T01:46:36;6.60;99.90
15274;DHT22;7738;49.532;11.156;2022-12-26T01:49:13;6.40;99.90
15274;DHT22;7738;49.532;11.156;2022-12-26T01:51:48;6.50;99.90
15274;DHT22;7738;49.532;11.156;2022-12-26T01:54:21;6.50;99.90
15274;DHT22;7738;49.532;11.156;2022-12-26T01:57:10;6.40;99.90
15274;DHT22;7738;49.532;11.156;2022-12-26T01:59:43;6.40;99.90
15274;DHT22;7738;49.532;11.156;2022-12-26T02:02:15;6.40;99.90
15274;DHT22;7738;49.532;11.156;2022-12-26T02:04:50;6.50;99.90
15274;DHT22;7738;49.532;11.156;2022-12-26T02:07:34;6.50;99.90
15274;DHT22;7738;49.532;11.156;2022-12-26T02:10:08;6.50;99.90
15274;DHT22;7738;49.532;11.156;2022-12-26T02:12:40;6.50;99.90
15274;DHT22;7738;49.532;11.156;2022-12-26T02:15:12;8.80;99.90
15274;DHT22;7738;49.532;11.156;2022-12-26T02:17:46;6.50;99.90
15274;DHT22;7738;49.532;11.156;2022-12-26T02:20:20;6.50;99.90
15274;DHT22;7738;49.532;11.156;2022-12-26T02:29:20;6.60;99.90
15274;DHT22;7738;49.532;11.156;2022-12-26T02:32:01;6.60;99.90
15274;DHT22;7738;49.532;11.156;2022-12-26T02:34:39;7.00;99.90
15274;DHT22;7738;49.532;11.156;2022-12-26T02:37:19;6.60;99.90
15274;DHT22;7738;49.532;11.156;2022-12-26T02:40:04;6.50;99.90
15274;DHT22;7738;49.532;11.156;2022-12-26T02:42:45;6.60;99.90
15274;DHT22;7738;49.532;11.156;2022-12-26T02:45:24;6.60;99.90
15274;DHT22;7738;49.532;11.156;2022-12-26T02:48:14;6.60;99.90
15274;DHT22;7738;49.532;11.156;2022-12-26T02:50:53;6.60;99.90
15274;DHT22;7738;49.532;11.156;2022-12-26T02:53:44;6.70;99.90
15274;DHT22;7738;49.532;11.156;2022-12-26T02:56:30;6.60;99.90
15274;DHT22;7738;49.532;11.156;2022-12-26T02:59:20;6.60;99.90
15274;DHT22;7738;49.532;11.156;2022-12-26T03:02:25;6.60;99.90
15274;DHT22;7738;49.532;11.156;2022-12-26T03:05:17;6.40;99.90
15274;DHT22;7738;49.532;11.156;2022-12-26T03:08:05;6.60;99.90
15274;DHT22;7738;49.532;11.156;2022-12-26T03:10:57;6.60;99.90
15274;DHT22;7738;49.532;11.156;2022-12-26T03:13:41;6.60;99.90
15274;DHT22;7738;49.532;11.156;2022-12-26T03:16:12;6.60;99.90
15274;DHT22;7738;49.532;11.156;2022-12-26T03:18:59;6.70;99.90
15274;DHT22;7738;49.532;11.156;2022-12-26T03:21:37;6.60;99.90
15274;DHT22;7738;49.532;11.156;2022-12-26T03:24:10;6.60;99.90
15274;DHT22;7738;49.532;11.156;2022-12-26T03:26:46;6.60;99.90
15274;DHT22;7738;49.532;11.156;2022-12-26T03:29:16;6.80;99.90
15274;DHT22;7738;49.532;11.156;2022-12-26T03:32:00;6.50;99.90
15274;DHT22;7738;49.532;11.156;2022-12-26T03:34:31;6.50;99.90
15274;DHT22;7738;49.532;11.156;2022-12-26T03:37:27;6.60;99.90
15274;DHT22;7738;49.532;11.156;2022-12-26T03:40:39;6.50;99.90
15274;DHT22;7738;49.532;11.156;2022-12-26T03:43:38;6.50;99.90
15274;DHT22;7738;49.532;11.156;2022-12-26T03:46:28;6.50;99.90
15274;DHT22;7738;49.532;11.156;2022-12-26T03:49:17;6.40;99.90
15274;DHT22;7738;49.532;11.156;2022-12-26T03:52:09;6.50;99.90
15274;DHT22;7738;49.532;11.156;2022-12-26T03:55:00;6.60;99.90
15274;DHT22;7738;49.532;11.156;2022-12-26T03:57:48;6.60;99.90
15274;DHT22;7738;49.532;11.156;2022-12-26T04:00:33;6.60;99.90
15274;DHT22;7738;49.532;11.156;2022-12-26T04:03:18;6.60;99.90
15274;DHT22;7738;49.532;11.156;2022-12-26T04:06:04;6.60;99.90
15274;DHT22;7738;49.532;11.156;2022-12-26T04:08:56;6.70;99.90
15274;DHT22;7738;49.532;11.156;2022-12-26T04:11:43;6.80;99.90
15274;DHT22;7738;49.532;11.156;2022-12-26T04:14:35;6.80;99.90
15274;DHT22;7738;49.532;11.156;2022-12-26T04:17:32;6.80;99.90
15274;DHT22;7738;49.532;11.156;2022-12-26T04:20:21;6.90;99.90
15274;DHT22;7738;49.532;11.156;2022-12-26T04:22:56;6.80;99.90
15274;DHT22;7738;49.532;11.156;2022-12-26T04:25:45;6.90;99.90
15274;DHT22;7738;49.532;11.156;2022-12-26T04:28:28;6.90;99.90
15274;DHT22;7738;49.532;11.156;2022-12-26T04:31:16;6.90;99.90
15274;DHT22;7738;49.532;11.156;2022-12-26T04:34:06;6.90;99.90
15274;DHT22;7738;49.532;11.156;2022-12-26T04:36:53;6.90;99.90
15274;DHT22;7738;49.532;11.156;2022-12-26T04:39:37;6.90;99.90
15274;DHT22;7738;49.532;11.156;2022-12-26T04:42:24;6.90;99.90
15274;DHT22;7738;49.532;11.156;2022-12-26T04:45:09;6.90;99.90
15274;DHT22;7738;49.532;11.156;2022-12-26T04:47:40;7.00;99.90
15274;DHT22;7738;49.532;11.156;2022-12-26T04:50:30;7.00;99.90
15274;DHT22;7738;49.532;11.156;2022-12-26T04:52:58;7.00;99.90
15274;DHT22;7738;49.532;11.156;2022-12-26T04:55:30;7.00;99.90
15274;DHT22;7738;49.532;11.156;2022-12-26T04:58:05;7.00;99.90
15274;DHT22;7738;49.532;11.156;2022-12-26T05:00:35;7.00;99.90
15274;DHT22;7738;49.532;11.156;2022-12-26T05:03:05;6.90;99.90
15274;DHT22;7738;49.532;11.156;2022-12-26T05:05:49;7.00;99.90
15274;DHT22;7738;49.532;11.156;2022-12-26T05:08:36;6.90;99.90
15274;DHT22;7738;49.532;11.156;2022-12-26T05:11:18;6.90;99.90
15274;DHT22;7738;49.532;11.156;2022-12-26T05:13:52;6.90;99.90
15274;DHT22;7738;49.532;11.156;2022-12-26T05:16:24;6.90;99.90
15274;DHT22;7738;49.532;11.156;2022-12-26T05:19:09;6.90;99.90
15274;DHT22;7738;49.532;11.156;2022-12-26T05:21:52;7.00;99.90
15274;DHT22;7738;49.532;11.156;2022-12-26T05:24:37;7.00;99.90
15274;DHT22;7738;49.532;11.156;2022-12-26T05:27:20;7.10;99.90
15274;DHT22;7738;49.532;11.156;2022-12-26T05:30:07;7.10;99.90
15274;DHT22;7738;49.532;11.156;2022-12-26T05:32:38;7.20;99.90
15274;DHT22;7738;49.532;11.156;2022-12-26T05:35:20;7.20;99.90
15274;DHT22;7738;49.532;11.156;2022-12-26T05:37:50;7.30;99.90
15274;DHT22;7738;49.532;11.156;2022-12-26T05:40:20;7.40;99.90
15274;DHT22;7738;49.532;11.156;2022-12-26T05:42:51;7.40;99.90
15274;DHT22;7738;49.532;11.156;2022-12-26T05:45:24;7.40;99.90
15274;DHT22;7738;49.532;11.156;2022-12-26T05:47:57;7.50;99.90
15274;DHT22;7738;49.532;11.156;2022-12-26T05:50:28;7.50;99.90
15274;DHT22;7738;49.532;11.156;2022-12-26T05:52:58;11.10;99.90
15274;DHT22;7738;49.532;11.156;2022-12-26T05:55:32;7.50;99.90
15274;DHT22;7738;49.532;11.156;2022-12-26T05:58:02;7.70;99.90
15274;DHT22;7738;49.532;11.156;2022-12-26T06:00:35;7.70;99.90
15274;DHT22;7738;49.532;11.156;2022-12-26T06:03:05;7.70;99.90
15274;DHT22;7738;49.532;11.156;2022-12-26T06:05:35;7.70;99.90
15274;DHT22;7738;49.532;11.156;2022-12-26T06:08:05;7.70;99.90
15274;DHT22;7738;49.532;11.156;2022-12-26T06:10:35;7.70;99.90
15274;DHT22;7738;49.532;11.156;2022-12-26T06:13:05;8.10;99.90
15274;DHT22;7738;49.532;11.156;2022-12-26T06:15:39;7.80;99.90
15274;DHT22;7738;49.532;11.156;2022-12-26T06:18:10;7.80;99.90
15274;DHT22;7738;49.532;11.156;2022-12-26T06:20:40;7.80;99.90
15274;DHT22;7738;49.532;11.156;2022-12-26T06:23:10;7.90;99.90
15274;DHT22;7738;49.532;11.156;2022-12-26T06:25:40;7.90;99.90
15274;DHT22;7738;49.532;11.156;2022-12-26T06:28:10;7.90;99.90
15274;DHT22;7738;49.532;11.156;2022-12-26T06:30:42;8.00;99.90
15274;DHT22;7738;49.532;11.156;2022-12-26T06:35:43;8.00;99.90
15274;DHT22;7738;49.532;11.156;2022-12-26T06:38:13;8.10;99.90
15274;DHT22;7738;49.532;11.156;2022-12-26T06:40:43;8.10;99.90
15274;DHT22;7738;49.532;11.156;2022-12-26T06:43:13;8.10;99.90
15274;DHT22;7738;49.532;11.156;2022-12-26T06:45:53;8.10;99.90
15274;DHT22;7738;49.532;11.156;2022-12-26T06:48:23;8.10;99.90
15274;DHT22;7738;49.532;11.156;2022-12-26T06:50:54;8.10;99.90
15274;DHT22;7738;49.532;11.156;2022-12-26T06:53:24;8.00;99.90
15274;DHT22;7738;49.532;11.156;2022-12-26T06:55:54;8.00;99.90
15274;DHT22;7738;49.532;11.156;2022-12-26T06:58:24;8.00;99.90
15274;DHT22;7738;49.532;11.156;2022-12-26T07:01:03;8.00;99.90
15274;DHT22;7738;49.532;11.156;2022-12-26T07:03:33;8.00;99.90
15274;DHT22;7738;49.532;11.156;2022-12-26T07:06:04;8.00;99.90
15274;DHT22;7738;49.532;11.156;2022-12-26T07:08:35;8.00;99.90
15274;DHT22;7738;49.532;11.156;2022-12-26T07:11:12;8.00;99.90
15274;DHT22;7738;49.532;11.156;2022-12-26T07:13:42;8.00;99.90
15274;DHT22;7738;49.532;11.156;2022-12-26T07:16:15;8.00;99.90
15274;DHT22;7738;49.532;11.156;2022-12-26T07:18:45;8.00;99.90
15274;DHT22;7738;49.532;11.156;2022-12-26T07:21:15;8.00;99.90
15274;DHT22;7738;49.532;11.156;2022-12-26T07:23:45;8.00;99.90
15274;DHT22;7738;49.532;11.156;2022-12-26T07:26:15;8.00;99.90
15274;DHT22;7738;49.532;11.156;2022-12-26T07:28:46;8.00;99.90
15274;DHT22;7738;49.532;11.156;2022-12-26T07:31:19;7.90;99.90
15274;DHT22;7738;49.532;11.156;2022-12-26T07:33:51;8.40;99.90
15274;DHT22;7738;49.532;11.156;2022-12-26T07:36:21;7.90;99.90
15274;DHT22;7738;49.532;11.156;2022-12-26T07:38:53;7.80;99.90
15274;DHT22;7738;49.532;11.156;2022-12-26T07:41:23;7.80;99.90
15274;DHT22;7738;49.532;11.156;2022-12-26T07:44:07;7.80;99.90
15274;DHT22;7738;49.532;11.156;2022-12-26T07:46:42;7.70;99.90
15274;DHT22;7738;49.532;11.156;2022-12-26T07:49:12;7.80;99.90
15274;DHT22;7738;49.532;11.156;2022-12-26T07:51:43;7.80;99.90
15274;DHT22;7738;49.532;11.156;2022-12-26T07:54:13;7.80;99.90
15274;DHT22;7738;49.532;11.156;2022-12-26T07:56:44;7.80;99.90
15274;DHT22;7738;49.532;11.156;2022-12-26T07:59:16;7.80;99.90
15274;DHT22;7738;49.532;11.156;2022-12-26T08:01:49;7.80;99.90
15274;DHT22;7738;49.532;11.156;2022-12-26T08:04:19;7.80;99.90
15274;DHT22;7738;49.532;11.156;2022-12-26T08:06:51;7.80;99.90
15274;DHT22;7738;49.532;11.156;2022-12-26T08:09:22;7.70;99.90
15274;DHT22;7738;49.532;11.156;2022-12-26T08:11:52;7.80;99.90
15274;DHT22;7738;49.532;11.156;2022-12-26T08:14:22;7.80;99.90
15274;DHT22;7738;49.532;11.156;2022-12-26T08:16:55;7.90;99.90
15274;DHT22;7738;49.532;11.156;2022-12-26T08:19:25;7.90;99.90
15274;DHT22;7738;49.532;11.156;2022-12-26T08:21:56;8.00;99.90
15274;DHT22;7738;49.532;11.156;2022-12-26T08:24:26;8.00;99.90
15274;DHT22;7738;49.532;11.156;2022-12-26T08:26:56;8.00;99.90
15274;DHT22;7738;49.532;11.156;2022-12-26T08:29:27;8.10;99.90
15274;DHT22;7738;49.532;11.156;2022-12-26T08:32:01;8.10;99.90
15274;DHT22;7738;49.532;11.156;2022-12-26T08:34:32;8.10;99.90
15274;DHT22;7738;49.532;11.156;2022-12-26T08:37:02;8.10;99.90
15274;DHT22;7738;49.532;11.156;2022-12-26T08:39:33;8.20;99.90
15274;DHT22;7738;49.532;11.156;2022-12-26T08:42:03;8.20;99.90
15274;DHT22;7738;49.532;11.156;2022-12-26T08:44:33;8.20;99.90
15274;DHT22;7738;49.532;11.156;2022-12-26T08:47:06;8.20;99.90
15274;DHT22;7738;49.532;11.156;2022-12-26T08:49:39;8.20;99.90
15274;DHT22;7738;49.532;11.156;2022-12-26T08:52:10;8.30;99.90
15274;DHT22;7738;49.532;11.156;2022-12-26T08:54:40;8.30;99.90
15274;DHT22;7738;49.532;11.156;2022-12-26T08:57:11;8.30;99.90
15274;DHT22;7738;49.532;11.156;2022-12-26T08:59:42;8.20;99.90
15274;DHT22;7738;49.532;11.156;2022-12-26T09:02:15;8.20;99.90
15274;DHT22;7738;49.532;11.156;2022-12-26T09:09:47;8.20;99.90
15274;DHT22;7738;49.532;11.156;2022-12-26T09:17:23;8.40;99.90
15274;DHT22;7738;49.532;11.156;2022-12-26T09:22:25;8.60;99.90
15274;DHT22;7738;49.532;11.156;2022-12-26T09:32:47;8.60;99.90
15274;DHT22;7738;49.532;11.156;2022-12-26T09:40:23;8.70;99.90
15274;DHT22;7738;49.532;11.156;2022-12-26T09:43:04;8.70;99.90
15274;DHT22;7738;49.532;11.156;2022-12-26T09:45:49;8.70;99.90
15274;DHT22;7738;49.532;11.156;2022-12-26T09:48:28;8.70;99.90
15274;DHT22;7738;49.532;11.156;2022-12-26T09:53:33;8.80;99.90
15274;DHT22;7738;49.532;11.156;2022-12-26T09:56:06;8.70;99.90
15274;DHT22;7738;49.532;11.156;2022-12-26T09:59:00;8.70;99.90
15274;DHT22;7738;49.532;11.156;2022-12-26T10:01:34;8.70;99.90
15274;DHT22;7738;49.532;11.156;2022-12-26T10:07:05;8.80;99.90
15274;DHT22;7738;49.532;11.156;2022-12-26T10:09:51;8.80;99.90
15274;DHT22;7738;49.532;11.156;2022-12-26T10:12:36;8.80;99.90
15274;DHT22;7738;49.532;11.156;2022-12-26T10:15:20;8.90;99.90
15274;DHT22;7738;49.532;11.156;2022-12-26T10:17:57;8.90;99.90
15274;DHT22;7738;49.532;11.156;2022-12-26T10:20:38;8.80;99.90
15274;DHT22;7738;49.532;11.156;2022-12-26T10:23:27;8.80;99.90
15274;DHT22;7738;49.532;11.156;2022-12-26T10:26:05;8.80;99.90
15274;DHT22;7738;49.532;11.156;2022-12-26T10:28:40;8.90;99.90
15274;DHT22;7738;49.532;11.156;2022-12-26T10:31:17;8.70;99.90
15274;DHT22;7738;49.532;11.156;2022-12-26T10:33:52;8.80;99.90
15274;DHT22;7738;49.532;11.156;2022-12-26T10:36:32;8.50;99.90
15274;DHT22;7738;49.532;11.156;2022-12-26T10:39:12;8.80;99.90
15274;DHT22;7738;49.532;11.156;2022-12-26T10:41:46;8.60;99.90
15274;DHT22;7738;49.532;11.156;2022-12-26T10:44:17;8.80;99.90
15274;DHT22;7738;49.532;11.156;2022-12-26T10:47:06;8.50;99.90
15274;DHT22;7738;49.532;11.156;2022-12-26T10:52:09;8.30;99.90
15274;DHT22;7738;49.532;11.156;2022-12-26T10:54:45;8.50;99.90
15274;DHT22;7738;49.532;11.156;2022-12-26T10:57:36;8.30;99.90
15274;DHT22;7738;49.532;11.156;2022-12-26T11:00:15;8.40;99.90
15274;DHT22;7738;49.532;11.156;2022-12-26T11:03:01;8.70;99.90
15274;DHT22;7738;49.532;11.156;2022-12-26T11:05:35;8.60;99.90
15274;DHT22;7738;49.532;11.156;2022-12-26T11:08:31;8.50;99.90
15274;DHT22;7738;49.532;11.156;2022-12-26T11:11:19;8.30;99.90
15274;DHT22;7738;49.532;11.156;2022-12-26T11:13:54;8.20;99.90
15274;DHT22;7738;49.532;11.156;2022-12-26T11:16:33;7.90;99.90
15274;DHT22;7738;49.532;11.156;2022-12-26T11:19:04;8.20;99.90
15274;DHT22;7738;49.532;11.156;2022-12-26T11:21:34;8.00;99.90
15274;DHT22;7738;49.532;11.156;2022-12-26T11:24:15;8.50;99.90
15274;DHT22;7738;49.532;11.156;2022-12-26T11:26:48;8.20;99.90
15274;DHT22;7738;49.532;11.156;2022-12-26T11:29:20;8.20;99.90
15274;DHT22;7738;49.532;11.156;2022-12-26T11:31:55;8.30;99.90
15274;DHT22;7738;49.532;11.156;2022-12-26T11:34:29;8.40;99.90
15274;DHT22;7738;49.532;11.156;2022-12-26T11:37:02;8.10;99.90
15274;DHT22;7738;49.532;11.156;2022-12-26T11:39:34;8.30;99.90
15274;DHT22;7738;49.532;11.156;2022-12-26T11:42:16;8.10;99.90
15274;DHT22;7738;49.532;11.156;2022-12-26T11:44:49;7.90;99.90
15274;DHT22;7738;49.532;11.156;2022-12-26T11:47:24;8.10;99.90
15274;DHT22;7738;49.532;11.156;2022-12-26T11:50:02;7.80;99.90
15274;DHT22;7738;49.532;11.156;2022-12-26T11:52:37;8.10;99.90
15274;DHT22;7738;49.532;11.156;2022-12-26T11:55:29;7.20;99.90
15274;DHT22;7738;49.532;11.156;2022-12-26T11:58:15;8.00;99.90
15274;DHT22;7738;49.532;11.156;2022-12-26T12:01:11;7.60;99.90
15274;DHT22;7738;49.532;11.156;2022-12-26T12:03:43;8.20;99.90
15274;DHT22;7738;49.532;11.156;2022-12-26T12:06:40;7.80;99.90
15274;DHT22;7738;49.532;11.156;2022-12-26T12:09:18;7.80;99.90
15274;DHT22;7738;49.532;11.156;2022-12-26T12:11:54;8.20;99.90
15274;DHT22;7738;49.532;11.156;2022-12-26T12:14:47;7.90;99.90
15274;DHT22;7738;49.532;11.156;2022-12-26T12:17:24;8.20;99.90
15274;DHT22;7738;49.532;11.156;2022-12-26T12:20:30;8.40;99.90
15274;DHT22;7738;49.532;11.156;2022-12-26T12:23:26;8.00;99.90
15274;DHT22;7738;49.532;11.156;2022-12-26T12:26:06;8.20;99.90
15274;DHT22;7738;49.532;11.156;2022-12-26T12:29:02;8.00;99.90
15274;DHT22;7738;49.532;11.156;2022-12-26T12:31:52;8.10;99.90
15274;DHT22;7738;49.532;11.156;2022-12-26T12:34:42;8.00;99.90
15274;DHT22;7738;49.532;11.156;2022-12-26T12:37:22;8.30;99.90
15274;DHT22;7738;49.532;11.156;2022-12-26T12:40:01;8.00;99.90
15274;DHT22;7738;49.532;11.156;2022-12-26T12:42:42;4.90;99.90
15274;DHT22;7738;49.532;11.156;2022-12-26T12:45:22;8.20;99.90
15274;DHT22;7738;49.532;11.156;2022-12-26T12:48:18;7.80;99.90
15274;DHT22;7738;49.532;11.156;2022-12-26T12:50:55;7.20;99.90
15274;DHT22;7738;49.532;11.156;2022-12-26T12:53:46;8.10;99.90
15274;DHT22;7738;49.532;11.156;2022-12-26T12:56:25;8.10;99.90
15274;DHT22;7738;49.532;11.156;2022-12-26T12:59:04;8.10;99.90
15274;DHT22;7738;49.532;11.156;2022-12-26T13:01:38;8.10;99.90
15274;DHT22;7738;49.532;11.156;2022-12-26T13:04:16;8.10;99.90
15274;DHT22;7738;49.532;11.156;2022-12-26T13:06:50;8.10;99.90
15274;DHT22;7738;49.532;11.156;2022-12-26T13:09:23;8.10;99.90
15274;DHT22;7738;49.532;11.156;2022-12-26T13:11:57;8.00;99.90
15274;DHT22;7738;49.532;11.156;2022-12-26T13:14:34;8.20;99.90
15274;DHT22;7738;49.532;11.156;2022-12-26T13:17:08;8.20;99.90
15274;DHT22;7738;49.532;11.156;2022-12-26T13:19:48;8.20;99.90
15274;DHT22;7738;49.532;11.156;2022-12-26T13:22:30;7.80;99.90
15274;DHT22;7738;49.532;11.156;2022-12-26T13:25:24;8.00;99.90
15274;DHT22;7738;49.532;11.156;2022-12-26T13:27:55;7.80;99.90
15274;DHT22;7738;49.532;11.156;2022-12-26T13:30:36;8.20;99.90
15274;DHT22;7738;49.532;11.156;2022-12-26T13:33:12;8.10;99.90
15274;DHT22;7738;49.532;11.156;2022-12-26T13:35:52;8.20;99.90
15274;DHT22;7738;49.532;11.156;2022-12-26T13:38:25;8.30;99.90
15274;DHT22;7738;49.532;11.156;2022-12-26T13:41:19;8.30;99.90
15274;DHT22;7738;49.532;11.156;2022-12-26T13:44:04;8.30;99.90
15274;DHT22;7738;49.532;11.156;2022-12-26T13:46:52;8.20;99.90
15274;DHT22;7738;49.532;11.156;2022-12-26T13:49:28;8.00;99.90
15274;DHT22;7738;49.532;11.156;2022-12-26T13:52:28;8.30;99.90
15274;DHT22;7738;49.532;11.156;2022-12-26T13:58:21;8.10;99.90
15274;DHT22;7738;49.532;11.156;2022-12-26T14:00:56;8.00;99.90
15274;DHT22;7738;49.532;11.156;2022-12-26T14:03:45;8.00;99.90
15274;DHT22;7738;49.532;11.156;2022-12-26T14:06:42;7.90;99.90
15274;DHT22;7738;49.532;11.156;2022-12-26T14:09:47;8.00;99.90
15274;DHT22;7738;49.532;11.156;2022-12-26T14:15:40;8.00;99.90
15274;DHT22;7738;49.532;11.156;2022-12-26T14:18:26;8.00;99.90
15274;DHT22;7738;49.532;11.156;2022-12-26T14:21:18;8.20;99.90
15274;DHT22;7738;49.532;11.156;2022-12-26T14:23:57;7.70;99.90
15274;DHT22;7738;49.532;11.156;2022-12-26T14:26:39;7.80;99.90
15274;DHT22;7738;49.532;11.156;2022-12-26T14:29:20;8.10;99.90
15274;DHT22;7738;49.532;11.156;2022-12-26T14:32:06;8.00;99.90
15274;DHT22;7738;49.532;11.156;2022-12-26T14:34:49;8.00;99.90
15274;DHT22;7738;49.532;11.156;2022-12-26T14:37:29;8.00;99.90
15274;DHT22;7738;49.532;11.156;2022-12-26T14:40:16;8.00;99.90
15274;DHT22;7738;49.532;11.156;2022-12-26T14:43:24;8.20;99.90
15274;DHT22;7738;49.532;11.156;2022-12-26T14:45:55;7.60;99.90
15274;DHT22;7738;49.532;11.156;2022-12-26T14:48:48;7.90;99.90
15274;DHT22;7738;49.532;11.156;2022-12-26T14:51:37;7.80;99.90
15274;DHT22;7738;49.532;11.156;2022-12-26T14:54:34;7.00;99.90
15274;DHT22;7738;49.532;11.156;2022-12-26T15:00:28;7.90;99.90
15274;DHT22;7738;49.532;11.156;2022-12-26T15:03:25;7.90;99.90
15274;DHT22;7738;49.532;11.156;2022-12-26T15:09:09;7.90;99.90
15274;DHT22;7738;49.532;11.156;2022-12-26T15:14:56;7.60;99.90
15274;DHT22;7738;49.532;11.156;2022-12-26T15:17:36;7.80;99.90
15274;DHT22;7738;49.532;11.156;2022-12-26T15:20:39;8.40;99.90
15274;DHT22;7738;49.532;11.156;2022-12-26T15:23:38;7.80;99.90
15274;DHT22;7738;49.532;11.156;2022-12-26T15:26:49;7.80;99.90
15274;DHT22;7738;49.532;11.156;2022-12-26T15:30:00;8.00;99.90
15274;DHT22;7738;49.532;11.156;2022-12-26T15:32:39;7.80;99.90
15274;DHT22;7738;49.532;11.156;2022-12-26T15:35:19;7.70;99.90
15274;DHT22;7738;49.532;11.156;2022-12-26T15:38:16;7.30;99.90
15274;DHT22;7738;49.532;11.156;2022-12-26T15:40:53;7.70;99.90
15274;DHT22;7738;49.532;11.156;2022-12-26T15:43:35;7.70;99.90
15274;DHT22;7738;49.532;11.156;2022-12-26T15:46:15;7.80;99.90
15274;DHT22;7738;49.532;11.156;2022-12-26T15:49:03;7.80;99.90
15274;DHT22;7738;49.532;11.156;2022-12-26T15:51:48;7.50;99.90
15274;DHT22;7738;49.532;11.156;2022-12-26T15:54:43;7.60;99.90
15274;DHT22;7738;49.532;11.156;2022-12-26T15:57:22;7.80;99.90
15274;DHT22;7738;49.532;11.156;2022-12-26T16:00:09;7.70;99.90
15274;DHT22;7738;49.532;11.156;2022-12-26T16:02:44;7.90;99.90
15274;DHT22;7738;49.532;11.156;2022-12-26T16:05:39;8.10;99.90
15274;DHT22;7738;49.532;11.156;2022-12-26T16:08:34;8.00;99.90
15274;DHT22;7738;49.532;11.156;2022-12-26T16:11:13;7.90;99.90
15274;DHT22;7738;49.532;11.156;2022-12-26T16:14:08;7.80;99.90
15274;DHT22;7738;49.532;11.156;2022-12-26T16:16:39;7.80;99.90
15274;DHT22;7738;49.532;11.156;2022-12-26T16:19:18;7.80;99.90
15274;DHT22;7738;49.532;11.156;2022-12-26T16:21:54;7.80;99.90
15274;DHT22;7738;49.532;11.156;2022-12-26T16:24:38;7.80;99.90
15274;DHT22;7738;49.532;11.156;2022-12-26T16:27:16;7.70;99.90
15274;DHT22;7738;49.532;11.156;2022-12-26T16:29:48;7.70;99.90
15274;DHT22;7738;49.532;11.156;2022-12-26T16:32:21;7.60;99.90
15274;DHT22;7738;49.532;11.156;2022-12-26T16:34:54;7.60;99.90
15274;DHT22;7738;49.532;11.156;2022-12-26T16:37:28;7.60;99.90
15274;DHT22;7738;49.532;11.156;2022-12-26T16:40:18;7.60;99.90
15274;DHT22;7738;49.532;11.156;2022-12-26T16:42:57;7.60;99.90
15274;DHT22;7738;49.532;11.156;2022-12-26T16:45:30;7.60;99.90
15274;DHT22;7738;49.532;11.156;2022-12-26T16:48:04;7.60;99.90
15274;DHT22;7738;49.532;11.156;2022-12-26T16:50:45;7.70;99.90
15274;DHT22;7738;49.532;11.156;2022-12-26T16:53:20;7.70;99.90
15274;DHT22;7738;49.532;11.156;2022-12-26T16:55:55;7.60;99.90
15274;DHT22;7738;49.532;11.156;2022-12-26T16:58:30;7.60;99.90
15274;DHT22;7738;49.532;11.156;2022-12-26T17:01:06;7.60;99.90
15274;DHT22;7738;49.532;11.156;2022-12-26T17:03:42;7.60;99.90
15274;DHT22;7738;49.532;11.156;2022-12-26T17:06:22;7.70;99.90
15274;DHT22;7738;49.532;11.156;2022-12-26T17:08:56;7.50;99.90
15274;DHT22;7738;49.532;11.156;2022-12-26T17:11:28;7.60;99.90
15274;DHT22;7738;49.532;11.156;2022-12-26T17:14:00;7.60;99.90
15274;DHT22;7738;49.532;11.156;2022-12-26T17:16:32;7.60;99.90
15274;DHT22;7738;49.532;11.156;2022-12-26T17:19:13;7.60;99.90
15274;DHT22;7738;49.532;11.156;2022-12-26T17:24:51;7.60;99.90
15274;DHT22;7738;49.532;11.156;2022-12-26T17:27:41;7.60;99.90
15274;DHT22;7738;49.532;11.156;2022-12-26T17:30:25;7.60;99.90
15274;DHT22;7738;49.532;11.156;2022-12-26T17:33:01;7.60;99.90
15274;DHT22;7738;49.532;11.156;2022-12-26T17:35:32;7.60;99.90
15274;DHT22;7738;49.532;11.156;2022-12-26T17:38:25;7.60;99.90
15274;DHT22;7738;49.532;11.156;2022-12-26T17:41:02;7.60;99.90
15274;DHT22;7738;49.532;11.156;2022-12-26T17:43:34;7.60;99.90
15274;DHT22;7738;49.532;11.156;2022-12-26T17:46:07;7.60;99.90
15274;DHT22;7738;49.532;11.156;2022-12-26T17:48:39;7.70;99.90
15274;DHT22;7738;49.532;11.156;2022-12-26T17:51:14;7.70;99.90
15274;DHT22;7738;49.532;11.156;2022-12-26T17:53:47;7.70;99.90
15274;DHT22;7738;49.532;11.156;2022-12-26T17:56:22;7.30;99.90
15274;DHT22;7738;49.532;11.156;2022-12-26T17:58:53;7.60;99.90